sensor_id;sensor_type;location;lat;lon;timestamp;P1;durP1;ratioP1;P2;durP2;ratioP2
46230;SDS011;31949;51.404;-0.038;2023-04-03T00:01:21;10.32;;;2.10;;
46230;SDS011;31949;51.404;-0.038;2023-04-03T00:03:50;6.97;;;2.42;;
46230;SDS011;31949;51.404;-0.038;2023-04-03T00:06:18;6.05;;;1.50;;
46230;SDS011;31949;51.404;-0.038;2023-04-03T00:08:45;4.95;;;1.20;;
46230;SDS011;31949;51.404;-0.038;2023-04-03T00:11:13;4.68;;;1.50;;
46230;SDS011;31949;51.404;-0.038;2023-04-03T00:13:41;5.05;;;1.52;;
46230;SDS011;31949;51.404;-0.038;2023-04-03T00:16:09;7.15;;;1.88;;
46230;SDS011;31949;51.404;-0.038;2023-04-03T00:18:37;10.90;;;1.85;;
46230;SDS011;31949;51.404;-0.038;2023-04-03T00:21:06;7.85;;;1.50;;
46230;SDS011;31949;51.404;-0.038;2023-04-03T00:23:34;4.25;;;1.67;;
46230;SDS011;31949;51.404;-0.038;2023-04-03T00:26:01;5.50;;;1.33;;
46230;SDS011;31949;51.404;-0.038;2023-04-03T00:28:29;5.95;;;2.22;;
46230;SDS011;31949;51.404;-0.038;2023-04-03T00:30:56;6.40;;;1.60;;
46230;SDS011;31949;51.404;-0.038;2023-04-03T00:33:23;8.38;;;1.83;;
46230;SDS011;31949;51.404;-0.038;2023-04-03T00:35:51;7.03;;;2.60;;
46230;SDS011;31949;51.404;-0.038;2023-04-03T00:38:19;5.53;;;1.65;;
46230;SDS011;31949;51.404;-0.038;2023-04-03T00:40:47;5.70;;;1.88;;
46230;SDS011;31949;51.404;-0.038;2023-04-03T00:45:47;6.57;;;1.50;;
46230;SDS011;31949;51.404;-0.038;2023-04-03T00:51:02;4.22;;;1.30;;
46230;SDS011;31949;51.404;-0.038;2023-04-03T00:53:33;4.43;;;1.60;;
46230;SDS011;31949;51.404;-0.038;2023-04-03T00:56:06;7.43;;;1.73;;
46230;SDS011;31949;51.404;-0.038;2023-04-03T00:58:41;6.78;;;1.40;;
46230;SDS011;31949;51.404;-0.038;2023-04-03T01:01:21;11.23;;;2.38;;
46230;SDS011;31949;51.404;-0.038;2023-04-03T01:03:50;8.90;;;1.88;;
46230;SDS011;31949;51.404;-0.038;2023-04-03T01:06:20;6.22;;;1.73;;
46230;SDS011;31949;51.404;-0.038;2023-04-03T01:08:51;8.70;;;2.28;;
46230;SDS011;31949;51.404;-0.038;2023-04-03T01:11:19;3.55;;;1.23;;
46230;SDS011;31949;51.404;-0.038;2023-04-03T01:13:48;5.55;;;2.17;;
46230;SDS011;31949;51.404;-0.038;2023-04-03T01:16:15;8.13;;;2.30;;
46230;SDS011;31949;51.404;-0.038;2023-04-03T01:18:43;6.40;;;1.73;;
46230;SDS011;31949;51.404;-0.038;2023-04-03T01:24:15;8.52;;;2.15;;
46230;SDS011;31949;51.404;-0.038;2023-04-03T01:26:54;4.28;;;1.67;;
46230;SDS011;31949;51.404;-0.038;2023-04-03T01:29:21;5.63;;;1.77;;
46230;SDS011;31949;51.404;-0.038;2023-04-03T01:31:50;7.70;;;2.10;;
46230;SDS011;31949;51.404;-0.038;2023-04-03T01:34:19;4.85;;;2.10;;
46230;SDS011;31949;51.404;-0.038;2023-04-03T01:36:48;10.25;;;1.83;;
46230;SDS011;31949;51.404;-0.038;2023-04-03T01:39:17;7.93;;;2.15;;
46230;SDS011;31949;51.404;-0.038;2023-04-03T01:41:45;7.57;;;1.90;;
46230;SDS011;31949;51.404;-0.038;2023-04-03T01:44:21;3.03;;;1.17;;
46230;SDS011;31949;51.404;-0.038;2023-04-03T01:46:48;4.93;;;1.67;;
46230;SDS011;31949;51.404;-0.038;2023-04-03T01:49:15;5.35;;;1.40;;
46230;SDS011;31949;51.404;-0.038;2023-04-03T01:51:43;3.25;;;1.15;;
46230;SDS011;31949;51.404;-0.038;2023-04-03T01:54:10;5.57;;;1.67;;
46230;SDS011;31949;51.404;-0.038;2023-04-03T01:56:38;7.75;;;1.77;;
46230;SDS011;31949;51.404;-0.038;2023-04-03T01:59:06;4.07;;;1.30;;
46230;SDS011;31949;51.404;-0.038;2023-04-03T02:01:34;4.95;;;1.30;;
46230;SDS011;31949;51.404;-0.038;2023-04-03T02:04:03;3.65;;;1.30;;
46230;SDS011;31949;51.404;-0.038;2023-04-03T02:06:30;4.82;;;1.33;;
46230;SDS011;31949;51.404;-0.038;2023-04-03T02:08:57;6.80;;;2.60;;
46230;SDS011;31949;51.404;-0.038;2023-04-03T02:11:24;2.53;;;1.02;;
46230;SDS011;31949;51.404;-0.038;2023-04-03T02:13:52;3.70;;;1.17;;
46230;SDS011;31949;51.404;-0.038;2023-04-03T02:16:19;7.13;;;1.30;;
46230;SDS011;31949;51.404;-0.038;2023-04-03T02:18:48;6.50;;;1.25;;
46230;SDS011;31949;51.404;-0.038;2023-04-03T02:21:16;5.75;;;1.48;;
46230;SDS011;31949;51.404;-0.038;2023-04-03T02:23:43;5.85;;;1.48;;
46230;SDS011;31949;51.404;-0.038;2023-04-03T02:26:12;5.38;;;2.00;;
46230;SDS011;31949;51.404;-0.038;2023-04-03T02:28:40;7.55;;;1.58;;
46230;SDS011;31949;51.404;-0.038;2023-04-03T02:31:10;4.65;;;1.33;;
46230;SDS011;31949;51.404;-0.038;2023-04-03T02:33:39;6.72;;;1.95;;
46230;SDS011;31949;51.404;-0.038;2023-04-03T02:36:09;5.75;;;1.58;;
46230;SDS011;31949;51.404;-0.038;2023-04-03T02:38:39;7.30;;;1.25;;
46230;SDS011;31949;51.404;-0.038;2023-04-03T02:41:09;12.23;;;1.50;;
46230;SDS011;31949;51.404;-0.038;2023-04-03T02:43:37;5.30;;;1.75;;
46230;SDS011;31949;51.404;-0.038;2023-04-03T02:46:05;6.95;;;1.60;;
46230;SDS011;31949;51.404;-0.038;2023-04-03T02:48:34;3.55;;;1.52;;
46230;SDS011;31949;51.404;-0.038;2023-04-03T02:51:02;4.32;;;1.40;;
46230;SDS011;31949;51.404;-0.038;2023-04-03T02:53:29;2.65;;;1.08;;
46230;SDS011;31949;51.404;-0.038;2023-04-03T02:55:57;3.60;;;1.10;;
46230;SDS011;31949;51.404;-0.038;2023-04-03T02:58:25;6.03;;;1.60;;
46230;SDS011;31949;51.404;-0.038;2023-04-03T03:00:55;3.60;;;1.00;;
46230;SDS011;31949;51.404;-0.038;2023-04-03T03:03:22;4.85;;;1.38;;
46230;SDS011;31949;51.404;-0.038;2023-04-03T03:05:49;3.70;;;1.20;;
46230;SDS011;31949;51.404;-0.038;2023-04-03T03:08:16;5.30;;;1.45;;
46230;SDS011;31949;51.404;-0.038;2023-04-03T03:10:46;5.20;;;1.92;;
46230;SDS011;31949;51.404;-0.038;2023-04-03T03:13:13;1.95;;;1.27;;
46230;SDS011;31949;51.404;-0.038;2023-04-03T03:15:41;2.30;;;1.27;;
46230;SDS011;31949;51.404;-0.038;2023-04-03T03:18:08;5.35;;;1.98;;
46230;SDS011;31949;51.404;-0.038;2023-04-03T03:20:35;4.85;;;1.30;;
46230;SDS011;31949;51.404;-0.038;2023-04-03T03:23:02;5.18;;;1.77;;
46230;SDS011;31949;51.404;-0.038;2023-04-03T03:25:30;5.75;;;1.20;;
46230;SDS011;31949;51.404;-0.038;2023-04-03T03:27:57;4.13;;;1.15;;
46230;SDS011;31949;51.404;-0.038;2023-04-03T03:30:24;6.60;;;1.67;;
46230;SDS011;31949;51.404;-0.038;2023-04-03T03:32:51;8.15;;;2.00;;
46230;SDS011;31949;51.404;-0.038;2023-04-03T03:35:19;5.85;;;1.42;;
46230;SDS011;31949;51.404;-0.038;2023-04-03T03:37:46;4.45;;;1.52;;
46230;SDS011;31949;51.404;-0.038;2023-04-03T03:40:14;4.63;;;1.42;;
46230;SDS011;31949;51.404;-0.038;2023-04-03T03:42:43;3.90;;;1.58;;
46230;SDS011;31949;51.404;-0.038;2023-04-03T03:45:10;6.97;;;1.50;;
46230;SDS011;31949;51.404;-0.038;2023-04-03T03:47:37;5.35;;;1.77;;
46230;SDS011;31949;51.404;-0.038;2023-04-03T03:50:06;3.83;;;1.40;;
46230;SDS011;31949;51.404;-0.038;2023-04-03T03:52:33;7.85;;;2.95;;
46230;SDS011;31949;51.404;-0.038;2023-04-03T03:55:01;4.05;;;1.45;;
46230;SDS011;31949;51.404;-0.038;2023-04-03T03:57:28;3.65;;;1.05;;
46230;SDS011;31949;51.404;-0.038;2023-04-03T03:59:56;4.95;;;2.08;;
46230;SDS011;31949;51.404;-0.038;2023-04-03T04:02:23;6.60;;;1.90;;
46230;SDS011;31949;51.404;-0.038;2023-04-03T04:04:52;2.53;;;1.13;;
46230;SDS011;31949;51.404;-0.038;2023-04-03T04:07:19;4.60;;;1.20;;
46230;SDS011;31949;51.404;-0.038;2023-04-03T04:09:46;4.30;;;1.30;;
46230;SDS011;31949;51.404;-0.038;2023-04-03T04:12:13;3.13;;;1.15;;
46230;SDS011;31949;51.404;-0.038;2023-04-03T04:14:41;3.47;;;1.35;;
46230;SDS011;31949;51.404;-0.038;2023-04-03T04:17:08;8.70;;;1.98;;
46230;SDS011;31949;51.404;-0.038;2023-04-03T04:19:36;6.15;;;1.60;;
46230;SDS011;31949;51.404;-0.038;2023-04-03T04:22:03;5.47;;;1.70;;
46230;SDS011;31949;51.404;-0.038;2023-04-03T04:24:32;3.42;;;1.70;;
46230;SDS011;31949;51.404;-0.038;2023-04-03T04:27:01;7.85;;;1.98;;
46230;SDS011;31949;51.404;-0.038;2023-04-03T04:29:31;5.63;;;1.55;;
46230;SDS011;31949;51.404;-0.038;2023-04-03T04:32:03;6.15;;;2.22;;
46230;SDS011;31949;51.404;-0.038;2023-04-03T04:34:31;4.88;;;1.55;;
46230;SDS011;31949;51.404;-0.038;2023-04-03T04:36:59;4.93;;;1.65;;
46230;SDS011;31949;51.404;-0.038;2023-04-03T04:39:27;4.53;;;1.58;;
46230;SDS011;31949;51.404;-0.038;2023-04-03T04:41:56;2.83;;;1.58;;
46230;SDS011;31949;51.404;-0.038;2023-04-03T04:44:26;2.75;;;1.58;;
46230;SDS011;31949;51.404;-0.038;2023-04-03T04:46:53;3.28;;;1.30;;
46230;SDS011;31949;51.404;-0.038;2023-04-03T04:49:20;5.63;;;1.63;;
46230;SDS011;31949;51.404;-0.038;2023-04-03T04:51:48;3.20;;;1.63;;
46230;SDS011;31949;51.404;-0.038;2023-04-03T04:54:23;5.47;;;1.95;;
46230;SDS011;31949;51.404;-0.038;2023-04-03T04:56:51;5.45;;;2.13;;
46230;SDS011;31949;51.404;-0.038;2023-04-03T04:59:18;7.53;;;2.75;;
46230;SDS011;31949;51.404;-0.038;2023-04-03T05:01:48;2.03;;;1.63;;
46230;SDS011;31949;51.404;-0.038;2023-04-03T05:04:16;3.97;;;1.70;;
46230;SDS011;31949;51.404;-0.038;2023-04-03T05:06:46;4.57;;;1.60;;
46230;SDS011;31949;51.404;-0.038;2023-04-03T05:09:18;1.90;;;1.60;;
46230;SDS011;31949;51.404;-0.038;2023-04-03T05:11:47;6.25;;;1.98;;
46230;SDS011;31949;51.404;-0.038;2023-04-03T05:14:16;9.13;;;2.67;;
46230;SDS011;31949;51.404;-0.038;2023-04-03T05:16:43;3.70;;;1.60;;
46230;SDS011;31949;51.404;-0.038;2023-04-03T05:19:11;3.58;;;1.73;;
46230;SDS011;31949;51.404;-0.038;2023-04-03T05:21:40;3.42;;;2.00;;
46230;SDS011;31949;51.404;-0.038;2023-04-03T05:24:11;5.38;;;1.95;;
46230;SDS011;31949;51.404;-0.038;2023-04-03T05:26:41;4.00;;;1.95;;
46230;SDS011;31949;51.404;-0.038;2023-04-03T05:29:10;3.45;;;1.52;;
46230;SDS011;31949;51.404;-0.038;2023-04-03T05:31:38;3.88;;;2.08;;
46230;SDS011;31949;51.404;-0.038;2023-04-03T05:34:07;3.72;;;1.77;;
46230;SDS011;31949;51.404;-0.038;2023-04-03T05:36:36;5.07;;;2.80;;
46230;SDS011;31949;51.404;-0.038;2023-04-03T05:39:06;3.08;;;1.70;;
46230;SDS011;31949;51.404;-0.038;2023-04-03T05:41:37;4.38;;;1.80;;
46230;SDS011;31949;51.404;-0.038;2023-04-03T05:44:04;2.65;;;1.83;;
46230;SDS011;31949;51.404;-0.038;2023-04-03T05:46:32;4.78;;;1.80;;
46230;SDS011;31949;51.404;-0.038;2023-04-03T05:49:03;6.47;;;2.10;;
46230;SDS011;31949;51.404;-0.038;2023-04-03T05:51:34;5.20;;;1.83;;
46230;SDS011;31949;51.404;-0.038;2023-04-03T05:54:12;2.67;;;1.88;;
46230;SDS011;31949;51.404;-0.038;2023-04-03T05:57:08;2.72;;;1.70;;
46230;SDS011;31949;51.404;-0.038;2023-04-03T05:59:36;5.85;;;1.80;;
46230;SDS011;31949;51.404;-0.038;2023-04-03T06:02:03;8.05;;;1.83;;
46230;SDS011;31949;51.404;-0.038;2023-04-03T06:04:31;6.38;;;1.85;;
46230;SDS011;31949;51.404;-0.038;2023-04-03T06:06:58;2.90;;;1.60;;
46230;SDS011;31949;51.404;-0.038;2023-04-03T06:09:27;5.88;;;1.67;;
46230;SDS011;31949;51.404;-0.038;2023-04-03T06:11:55;4.57;;;2.03;;
46230;SDS011;31949;51.404;-0.038;2023-04-03T06:14:26;4.28;;;2.00;;
46230;SDS011;31949;51.404;-0.038;2023-04-03T06:16:54;6.28;;;2.10;;
46230;SDS011;31949;51.404;-0.038;2023-04-03T06:19:21;7.22;;;2.45;;
46230;SDS011;31949;51.404;-0.038;2023-04-03T06:21:53;4.60;;;2.00;;
46230;SDS011;31949;51.404;-0.038;2023-04-03T06:24:23;4.60;;;2.40;;
46230;SDS011;31949;51.404;-0.038;2023-04-03T06:26:52;6.80;;;2.50;;
46230;SDS011;31949;51.404;-0.038;2023-04-03T06:29:20;6.03;;;2.63;;
46230;SDS011;31949;51.404;-0.038;2023-04-03T06:31:47;4.68;;;1.92;;
46230;SDS011;31949;51.404;-0.038;2023-04-03T06:34:15;4.97;;;1.90;;
46230;SDS011;31949;51.404;-0.038;2023-04-03T06:36:43;4.13;;;2.00;;
46230;SDS011;31949;51.404;-0.038;2023-04-03T06:39:13;7.35;;;2.20;;
46230;SDS011;31949;51.404;-0.038;2023-04-03T06:41:44;3.92;;;2.10;;
46230;SDS011;31949;51.404;-0.038;2023-04-03T06:44:11;7.65;;;2.38;;
46230;SDS011;31949;51.404;-0.038;2023-04-03T06:46:42;5.75;;;2.13;;
46230;SDS011;31949;51.404;-0.038;2023-04-03T06:49:10;7.03;;;2.63;;
46230;SDS011;31949;51.404;-0.038;2023-04-03T06:51:39;9.52;;;2.42;;
46230;SDS011;31949;51.404;-0.038;2023-04-03T06:54:07;7.72;;;1.63;;
46230;SDS011;31949;51.404;-0.038;2023-04-03T06:56:34;5.07;;;2.78;;
46230;SDS011;31949;51.404;-0.038;2023-04-03T06:59:02;7.55;;;2.55;;
46230;SDS011;31949;51.404;-0.038;2023-04-03T07:01:30;6.45;;;2.72;;
46230;SDS011;31949;51.404;-0.038;2023-04-03T07:03:57;8.43;;;2.22;;
46230;SDS011;31949;51.404;-0.038;2023-04-03T07:06:25;5.32;;;2.03;;
46230;SDS011;31949;51.404;-0.038;2023-04-03T07:08:54;5.47;;;2.20;;
46230;SDS011;31949;51.404;-0.038;2023-04-03T07:11:21;4.97;;;2.05;;
46230;SDS011;31949;51.404;-0.038;2023-04-03T07:13:49;5.85;;;2.10;;
46230;SDS011;31949;51.404;-0.038;2023-04-03T07:16:17;9.40;;;2.38;;
46230;SDS011;31949;51.404;-0.038;2023-04-03T07:18:45;6.88;;;2.47;;
46230;SDS011;31949;51.404;-0.038;2023-04-03T07:21:13;4.72;;;2.13;;
46230;SDS011;31949;51.404;-0.038;2023-04-03T07:23:40;5.50;;;2.47;;
46230;SDS011;31949;51.404;-0.038;2023-04-03T07:26:07;7.60;;;2.63;;
46230;SDS011;31949;51.404;-0.038;2023-04-03T07:28:35;5.60;;;2.50;;
46230;SDS011;31949;51.404;-0.038;2023-04-03T07:31:04;6.72;;;2.78;;
46230;SDS011;31949;51.404;-0.038;2023-04-03T07:33:35;7.15;;;2.88;;
46230;SDS011;31949;51.404;-0.038;2023-04-03T07:36:04;7.78;;;2.22;;
46230;SDS011;31949;51.404;-0.038;2023-04-03T07:38:34;7.20;;;2.30;;
46230;SDS011;31949;51.404;-0.038;2023-04-03T07:41:03;7.82;;;2.65;;
46230;SDS011;31949;51.404;-0.038;2023-04-03T07:43:31;8.27;;;2.28;;
46230;SDS011;31949;51.404;-0.038;2023-04-03T07:45:59;8.98;;;3.35;;
46230;SDS011;31949;51.404;-0.038;2023-04-03T07:48:27;4.20;;;2.47;;
46230;SDS011;31949;51.404;-0.038;2023-04-03T07:50:58;7.95;;;2.60;;
46230;SDS011;31949;51.404;-0.038;2023-04-03T07:53:27;6.65;;;2.17;;
46230;SDS011;31949;51.404;-0.038;2023-04-03T07:55:56;12.50;;;2.88;;
46230;SDS011;31949;51.404;-0.038;2023-04-03T07:58:24;5.20;;;2.35;;
46230;SDS011;31949;51.404;-0.038;2023-04-03T08:00:52;7.15;;;3.22;;
46230;SDS011;31949;51.404;-0.038;2023-04-03T08:03:19;6.63;;;2.58;;
46230;SDS011;31949;51.404;-0.038;2023-04-03T08:05:47;6.88;;;2.90;;
46230;SDS011;31949;51.404;-0.038;2023-04-03T08:08:17;7.10;;;3.17;;
46230;SDS011;31949;51.404;-0.038;2023-04-03T08:10:50;11.70;;;2.63;;
46230;SDS011;31949;51.404;-0.038;2023-04-03T08:13:19;7.68;;;2.83;;
46230;SDS011;31949;51.404;-0.038;2023-04-03T08:15:48;9.52;;;3.60;;
46230;SDS011;31949;51.404;-0.038;2023-04-03T08:18:15;7.47;;;2.83;;
46230;SDS011;31949;51.404;-0.038;2023-04-03T08:20:43;5.50;;;2.60;;
46230;SDS011;31949;51.404;-0.038;2023-04-03T08:23:10;8.43;;;3.92;;
46230;SDS011;31949;51.404;-0.038;2023-04-03T08:25:38;10.00;;;2.83;;
46230;SDS011;31949;51.404;-0.038;2023-04-03T08:28:07;4.75;;;3.25;;
46230;SDS011;31949;51.404;-0.038;2023-04-03T08:30:38;9.32;;;2.90;;
46230;SDS011;31949;51.404;-0.038;2023-04-03T08:35:40;8.80;;;3.45;;
46230;SDS011;31949;51.404;-0.038;2023-04-03T08:38:09;8.25;;;3.50;;
46230;SDS011;31949;51.404;-0.038;2023-04-03T08:40:37;9.85;;;3.83;;
46230;SDS011;31949;51.404;-0.038;2023-04-03T08:45:52;8.50;;;3.63;;
46230;SDS011;31949;51.404;-0.038;2023-04-03T08:48:35;8.23;;;3.63;;
46230;SDS011;31949;51.404;-0.038;2023-04-03T08:51:10;9.80;;;3.97;;
46230;SDS011;31949;51.404;-0.038;2023-04-03T08:53:54;9.27;;;4.10;;
46230;SDS011;31949;51.404;-0.038;2023-04-03T08:56:30;7.45;;;3.92;;
46230;SDS011;31949;51.404;-0.038;2023-04-03T08:59:00;10.38;;;4.53;;
46230;SDS011;31949;51.404;-0.038;2023-04-03T09:01:35;7.13;;;4.15;;
46230;SDS011;31949;51.404;-0.038;2023-04-03T09:04:12;10.05;;;3.95;;
46230;SDS011;31949;51.404;-0.038;2023-04-03T09:06:52;8.50;;;4.57;;
46230;SDS011;31949;51.404;-0.038;2023-04-03T09:12:13;9.60;;;4.45;;
46230;SDS011;31949;51.404;-0.038;2023-04-03T09:14:45;12.13;;;5.47;;
46230;SDS011;31949;51.404;-0.038;2023-04-03T09:23:00;11.65;;;4.60;;
46230;SDS011;31949;51.404;-0.038;2023-04-03T09:25:29;8.63;;;5.05;;
46230;SDS011;31949;51.404;-0.038;2023-04-03T09:28:00;11.02;;;4.10;;
46230;SDS011;31949;51.404;-0.038;2023-04-03T09:30:29;10.65;;;6.57;;
46230;SDS011;31949;51.404;-0.038;2023-04-03T09:32:56;7.45;;;4.72;;
46230;SDS011;31949;51.404;-0.038;2023-04-03T09:35:31;8.50;;;5.65;;
46230;SDS011;31949;51.404;-0.038;2023-04-03T09:38:15;13.40;;;5.43;;
46230;SDS011;31949;51.404;-0.038;2023-04-03T09:40:48;6.63;;;5.10;;
46230;SDS011;31949;51.404;-0.038;2023-04-03T09:43:36;10.07;;;5.47;;
46230;SDS011;31949;51.404;-0.038;2023-04-03T09:48:58;9.57;;;5.35;;
46230;SDS011;31949;51.404;-0.038;2023-04-03T09:51:32;9.40;;;5.35;;
46230;SDS011;31949;51.404;-0.038;2023-04-03T09:53:59;8.55;;;5.03;;
46230;SDS011;31949;51.404;-0.038;2023-04-03T09:56:27;9.55;;;5.05;;
46230;SDS011;31949;51.404;-0.038;2023-04-03T10:01:34;9.98;;;5.68;;
46230;SDS011;31949;51.404;-0.038;2023-04-03T10:04:17;8.25;;;5.18;;
46230;SDS011;31949;51.404;-0.038;2023-04-03T10:06:46;6.30;;;4.45;;
46230;SDS011;31949;51.404;-0.038;2023-04-03T10:09:19;7.53;;;4.53;;
46230;SDS011;31949;51.404;-0.038;2023-04-03T10:11:59;7.07;;;4.53;;
46230;SDS011;31949;51.404;-0.038;2023-04-03T10:14:35;7.80;;;4.60;;
46230;SDS011;31949;51.404;-0.038;2023-04-03T10:23:00;7.78;;;4.22;;
46230;SDS011;31949;51.404;-0.038;2023-04-03T10:36:41;7.93;;;3.88;;
46230;SDS011;31949;51.404;-0.038;2023-04-03T10:48:07;9.13;;;3.63;;
46230;SDS011;31949;51.404;-0.038;2023-04-03T10:50:43;7.35;;;3.92;;
46230;SDS011;31949;51.404;-0.038;2023-04-03T10:56:34;7.32;;;4.25;;
46230;SDS011;31949;51.404;-0.038;2023-04-03T10:59:16;8.38;;;3.58;;
46230;SDS011;31949;51.404;-0.038;2023-04-03T11:02:00;8.27;;;3.50;;
46230;SDS011;31949;51.404;-0.038;2023-04-03T11:04:34;4.55;;;2.88;;
46230;SDS011;31949;51.404;-0.038;2023-04-03T11:07:08;5.57;;;3.58;;
46230;SDS011;31949;51.404;-0.038;2023-04-03T11:09:46;5.50;;;3.60;;
46230;SDS011;31949;51.404;-0.038;2023-04-03T11:14:50;7.43;;;3.55;;
46230;SDS011;31949;51.404;-0.038;2023-04-03T11:22:27;5.75;;;3.50;;
46230;SDS011;31949;51.404;-0.038;2023-04-03T11:28:15;6.15;;;3.90;;
46230;SDS011;31949;51.404;-0.038;2023-04-03T11:36:09;3.75;;;2.50;;
46230;SDS011;31949;51.404;-0.038;2023-04-03T11:38:55;4.35;;;2.75;;
46230;SDS011;31949;51.404;-0.038;2023-04-03T11:41:30;2.92;;;2.63;;
46230;SDS011;31949;51.404;-0.038;2023-04-03T11:44:00;3.85;;;3.03;;
46230;SDS011;31949;51.404;-0.038;2023-04-03T12:13:37;7.50;;;2.65;;
46230;SDS011;31949;51.404;-0.038;2023-04-03T12:16:30;3.97;;;2.42;;
46230;SDS011;31949;51.404;-0.038;2023-04-03T12:19:03;4.22;;;2.70;;
46230;SDS011;31949;51.404;-0.038;2023-04-03T12:24:26;6.45;;;3.00;;
46230;SDS011;31949;51.404;-0.038;2023-04-03T12:29:54;4.28;;;3.30;;
46230;SDS011;31949;51.404;-0.038;2023-04-03T12:35:43;6.60;;;2.88;;
46230;SDS011;31949;51.404;-0.038;2023-04-03T12:41:38;3.10;;;2.63;;
46230;SDS011;31949;51.404;-0.038;2023-04-03T12:47:25;6.00;;;3.28;;
46230;SDS011;31949;51.404;-0.038;2023-04-03T12:49:55;4.97;;;3.40;;
46230;SDS011;31949;51.404;-0.038;2023-04-03T12:54:52;6.60;;;3.33;;
46230;SDS011;31949;51.404;-0.038;2023-04-03T12:57:21;5.70;;;2.55;;
46230;SDS011;31949;51.404;-0.038;2023-04-03T12:59:52;7.93;;;3.22;;
46230;SDS011;31949;51.404;-0.038;2023-04-03T13:04:51;14.73;;;6.32;;
46230;SDS011;31949;51.404;-0.038;2023-04-03T13:07:28;5.50;;;3.33;;
46230;SDS011;31949;51.404;-0.038;2023-04-03T13:12:31;5.72;;;2.85;;
46230;SDS011;31949;51.404;-0.038;2023-04-03T13:15:01;7.32;;;3.30;;
46230;SDS011;31949;51.404;-0.038;2023-04-03T13:17:39;6.13;;;4.00;;
46230;SDS011;31949;51.404;-0.038;2023-04-03T13:20:12;5.38;;;2.92;;
46230;SDS011;31949;51.404;-0.038;2023-04-03T13:23:00;7.55;;;3.05;;
46230;SDS011;31949;51.404;-0.038;2023-04-03T13:25:30;7.60;;;3.78;;
46230;SDS011;31949;51.404;-0.038;2023-04-03T13:28:01;3.55;;;2.28;;
46230;SDS011;31949;51.404;-0.038;2023-04-03T13:30:40;6.10;;;3.47;;
46230;SDS011;31949;51.404;-0.038;2023-04-03T13:33:25;6.07;;;3.10;;
46230;SDS011;31949;51.404;-0.038;2023-04-03T13:35:56;7.22;;;3.35;;
46230;SDS011;31949;51.404;-0.038;2023-04-03T13:38:43;5.80;;;2.97;;
46230;SDS011;31949;51.404;-0.038;2023-04-03T13:41:29;4.18;;;2.72;;
46230;SDS011;31949;51.404;-0.038;2023-04-03T13:44:15;7.22;;;2.85;;
46230;SDS011;31949;51.404;-0.038;2023-04-03T13:46:53;5.85;;;3.03;;
46230;SDS011;31949;51.404;-0.038;2023-04-03T13:54:36;3.65;;;2.65;;
46230;SDS011;31949;51.404;-0.038;2023-04-03T13:57:15;5.38;;;2.45;;
46230;SDS011;31949;51.404;-0.038;2023-04-03T13:59:43;5.95;;;2.60;;
46230;SDS011;31949;51.404;-0.038;2023-04-03T14:07:13;8.85;;;3.03;;
46230;SDS011;31949;51.404;-0.038;2023-04-03T14:09:42;5.18;;;2.33;;
46230;SDS011;31949;51.404;-0.038;2023-04-03T14:14:58;7.97;;;3.58;;
46230;SDS011;31949;51.404;-0.038;2023-04-03T14:17:28;7.38;;;3.17;;
46230;SDS011;31949;51.404;-0.038;2023-04-03T14:19:57;5.20;;;3.35;;
46230;SDS011;31949;51.404;-0.038;2023-04-03T14:22:26;5.97;;;3.10;;
46230;SDS011;31949;51.404;-0.038;2023-04-03T14:24:55;5.28;;;3.20;;
46230;SDS011;31949;51.404;-0.038;2023-04-03T14:27:24;5.80;;;4.80;;
46230;SDS011;31949;51.404;-0.038;2023-04-03T14:29:54;8.82;;;5.53;;
46230;SDS011;31949;51.404;-0.038;2023-04-03T14:32:24;5.80;;;4.32;;
46230;SDS011;31949;51.404;-0.038;2023-04-03T14:34:53;5.22;;;2.70;;
46230;SDS011;31949;51.404;-0.038;2023-04-03T14:37:23;9.43;;;3.92;;
46230;SDS011;31949;51.404;-0.038;2023-04-03T14:39:54;3.78;;;2.47;;
46230;SDS011;31949;51.404;-0.038;2023-04-03T14:42:24;4.03;;;2.42;;
46230;SDS011;31949;51.404;-0.038;2023-04-03T14:44:53;8.77;;;3.53;;
46230;SDS011;31949;51.404;-0.038;2023-04-03T14:47:22;5.28;;;3.20;;
46230;SDS011;31949;51.404;-0.038;2023-04-03T14:49:59;5.40;;;3.00;;
46230;SDS011;31949;51.404;-0.038;2023-04-03T14:52:30;3.28;;;2.40;;
46230;SDS011;31949;51.404;-0.038;2023-04-03T14:54:59;6.05;;;3.53;;
46230;SDS011;31949;51.404;-0.038;2023-04-03T14:57:28;5.18;;;2.97;;
46230;SDS011;31949;51.404;-0.038;2023-04-03T14:59:57;5.20;;;2.83;;
46230;SDS011;31949;51.404;-0.038;2023-04-03T15:04:54;6.60;;;3.40;;
46230;SDS011;31949;51.404;-0.038;2023-04-03T15:07:22;6.57;;;4.10;;
46230;SDS011;31949;51.404;-0.038;2023-04-03T15:09:51;4.65;;;2.83;;
46230;SDS011;31949;51.404;-0.038;2023-04-03T15:12:19;3.60;;;2.35;;
46230;SDS011;31949;51.404;-0.038;2023-04-03T15:14:46;7.80;;;2.92;;
46230;SDS011;31949;51.404;-0.038;2023-04-03T15:17:25;6.43;;;3.55;;
46230;SDS011;31949;51.404;-0.038;2023-04-03T15:19:52;5.30;;;2.83;;
46230;SDS011;31949;51.404;-0.038;2023-04-03T15:22:20;4.63;;;2.85;;
46230;SDS011;31949;51.404;-0.038;2023-04-03T15:24:47;3.83;;;1.92;;
46230;SDS011;31949;51.404;-0.038;2023-04-03T15:27:14;3.83;;;2.78;;
46230;SDS011;31949;51.404;-0.038;2023-04-03T15:29:42;4.35;;;2.45;;
46230;SDS011;31949;51.404;-0.038;2023-04-03T15:32:10;4.88;;;3.20;;
46230;SDS011;31949;51.404;-0.038;2023-04-03T15:34:38;5.20;;;2.33;;
46230;SDS011;31949;51.404;-0.038;2023-04-03T15:37:06;7.30;;;2.80;;
46230;SDS011;31949;51.404;-0.038;2023-04-03T15:39:33;8.15;;;4.00;;
46230;SDS011;31949;51.404;-0.038;2023-04-03T15:42:01;4.57;;;2.45;;
46230;SDS011;31949;51.404;-0.038;2023-04-03T15:44:33;3.00;;;2.20;;
46230;SDS011;31949;51.404;-0.038;2023-04-03T15:47:02;3.67;;;1.70;;
46230;SDS011;31949;51.404;-0.038;2023-04-03T15:49:31;6.15;;;2.00;;
46230;SDS011;31949;51.404;-0.038;2023-04-03T15:52:00;4.18;;;2.22;;
46230;SDS011;31949;51.404;-0.038;2023-04-03T15:54:28;6.40;;;2.42;;
46230;SDS011;31949;51.404;-0.038;2023-04-03T15:56:56;5.45;;;2.72;;
46230;SDS011;31949;51.404;-0.038;2023-04-03T15:59:24;5.32;;;2.20;;
46230;SDS011;31949;51.404;-0.038;2023-04-03T16:01:51;4.43;;;3.15;;
46230;SDS011;31949;51.404;-0.038;2023-04-03T16:04:19;4.65;;;2.88;;
46230;SDS011;31949;51.404;-0.038;2023-04-03T16:06:48;3.85;;;2.13;;
46230;SDS011;31949;51.404;-0.038;2023-04-03T16:09:16;4.20;;;2.22;;
46230;SDS011;31949;51.404;-0.038;2023-04-03T16:11:43;3.45;;;2.13;;
46230;SDS011;31949;51.404;-0.038;2023-04-03T16:14:10;7.50;;;2.95;;
46230;SDS011;31949;51.404;-0.038;2023-04-03T16:16:38;3.88;;;2.28;;
46230;SDS011;31949;51.404;-0.038;2023-04-03T16:19:06;6.93;;;2.65;;
46230;SDS011;31949;51.404;-0.038;2023-04-03T16:21:34;5.88;;;2.08;;
46230;SDS011;31949;51.404;-0.038;2023-04-03T16:24:02;2.90;;;2.00;;
46230;SDS011;31949;51.404;-0.038;2023-04-03T16:26:30;5.88;;;1.80;;
46230;SDS011;31949;51.404;-0.038;2023-04-03T16:28:58;5.90;;;2.00;;
46230;SDS011;31949;51.404;-0.038;2023-04-03T16:31:25;2.97;;;1.85;;
46230;SDS011;31949;51.404;-0.038;2023-04-03T16:33:53;3.50;;;1.98;;
46230;SDS011;31949;51.404;-0.038;2023-04-03T16:36:22;3.03;;;1.90;;
46230;SDS011;31949;51.404;-0.038;2023-04-03T16:38:51;3.65;;;1.92;;
46230;SDS011;31949;51.404;-0.038;2023-04-03T16:41:19;4.00;;;2.28;;
46230;SDS011;31949;51.404;-0.038;2023-04-03T16:43:46;9.00;;;2.92;;
46230;SDS011;31949;51.404;-0.038;2023-04-03T16:46:14;2.88;;;2.47;;
46230;SDS011;31949;51.404;-0.038;2023-04-03T16:48:41;4.65;;;2.78;;
46230;SDS011;31949;51.404;-0.038;2023-04-03T16:51:08;5.03;;;2.47;;
46230;SDS011;31949;51.404;-0.038;2023-04-03T16:53:36;5.15;;;2.63;;
46230;SDS011;31949;51.404;-0.038;2023-04-03T16:56:03;5.20;;;2.38;;
46230;SDS011;31949;51.404;-0.038;2023-04-03T16:58:31;7.28;;;2.40;;
46230;SDS011;31949;51.404;-0.038;2023-04-03T17:00:58;5.43;;;2.67;;
46230;SDS011;31949;51.404;-0.038;2023-04-03T17:03:25;6.32;;;2.47;;
46230;SDS011;31949;51.404;-0.038;2023-04-03T17:05:54;2.85;;;2.17;;
46230;SDS011;31949;51.404;-0.038;2023-04-03T17:08:23;3.60;;;2.13;;